SBOSBO KIN / MKJP
Speedbird OnlineSpeedbird Online KIN / MKJP

Norman Manley International Airport
01:29 27.2°C

Location Kingston, Jamaica
Latitude: 17.935699462890625
Longitude: -76.7874984741211
Web Wikipedia
Altitude 3 Meter / 10 Feet
Distance 7,557 KM / 4,696 Miles
from London.
Time Zone UTC -5 hours (America/Jamaica)
Codes IATA: KIN
ICAO: MKJP
Currency £1 equals JMD 172.78
Runways
RunwayLength (m)Surface
122713Asphalt
302713Asphalt
Radio
TypeDescriptionFrequency
APPMANLEY APP120.6
ATISATIS127.7
GNDGND121.7
TWRMANLEY TWR118.65
Live ATC
METAR MKJP 060600Z 33003KT 9999 FEW022 28/24 Q1012
TAF TAF MKJP 060515Z 0606/0706 35005KT 9999 FEW022 BECMG 0613/0615 14015KT SCT018 SCT020CB TEMPO 0616/0620 4000 TSRA BKN016 BKN018CB BECMG 0701/0703 35005KT
Weather As Of 06 Oct 2022 01:29
Description Few clouds
Wind 6 km/h from North-West (330°)
Cloud Cover 20%
Precipitation Rain: none, Snow: none
Sunrise 05:58
Sunset 17:51
Lounges Club Kingston , Main Terminal
Rotations During the last 90 days there were
47 flights from LGW
43 flights to LGW
1 flights to SNN
1 flights to YYT


© 2017-2022 Speedbird Online